createdAt,value
2018-03-08T00:00:18.251Z,86.29
2018-03-08T00:02:46.603Z,86.15
2018-03-08T00:05:14.940Z,86.06
2018-03-08T00:07:44.106Z,85.79
2018-03-08T00:10:12.493Z,85.76
2018-03-08T00:12:40.892Z,85.56
2018-03-08T00:15:09.270Z,85.37
2018-03-08T00:17:37.576Z,85.47
2018-03-08T00:20:05.913Z,85.34
2018-03-08T00:22:34.258Z,85.13
2018-03-08T00:25:03.426Z,85.22
2018-03-08T00:27:31.857Z,85.12
2018-03-08T00:30:00.977Z,85.26
2018-03-08T00:32:29.372Z,85.55
2018-03-08T00:34:57.743Z,84.99
2018-03-08T00:37:26.131Z,85.00
2018-03-08T00:39:54.811Z,85.41
2018-03-08T00:42:23.133Z,85.57
2018-03-08T00:44:51.504Z,85.61
2018-03-08T00:47:19.839Z,85.30
2018-03-08T00:49:48.317Z,85.35
2018-03-08T00:52:17.711Z,85.28
2018-03-08T00:54:46.924Z,85.30
2018-03-08T00:57:16.242Z,85.73
2018-03-08T00:59:44.633Z,85.90
2018-03-08T01:02:12.960Z,86.02
2018-03-08T01:04:41.341Z,86.04
2018-03-08T01:07:09.723Z,85.86
2018-03-08T01:09:38.160Z,85.99
2018-03-08T01:12:06.549Z,85.51
2018-03-08T01:14:34.944Z,85.37
2018-03-08T01:17:03.339Z,85.50
2018-03-08T01:19:31.717Z,85.77
2018-03-08T01:22:00.218Z,85.57
2018-03-08T01:24:28.595Z,85.29
2018-03-08T01:26:58.917Z,85.50
2018-03-08T01:29:27.378Z,85.27
2018-03-08T01:31:55.759Z,84.78
2018-03-08T01:34:24.203Z,84.35
2018-03-08T01:36:53.410Z,84.71
2018-03-08T01:39:22.619Z,84.91
2018-03-08T01:41:51.733Z,85.48
2018-03-08T01:44:20.131Z,85.80
2018-03-08T01:46:48.628Z,85.90
2018-03-08T01:49:17.267Z,85.94
2018-03-08T01:52:03.954Z,86.00
2018-03-08T01:54:33.125Z,85.99
2018-03-08T01:57:01.555Z,86.18
2018-03-08T01:59:30.683Z,86.03
2018-03-08T02:01:59.057Z,86.04
2018-03-08T02:04:28.199Z,85.76
2018-03-08T02:06:57.363Z,86.05
2018-03-08T02:09:25.738Z,85.90
2018-03-08T02:11:54.353Z,86.33
2018-03-08T02:14:22.867Z,86.40
2018-03-08T02:16:51.215Z,86.30
2018-03-08T02:19:19.627Z,86.52
2018-03-08T02:21:47.975Z,86.35
2018-03-08T02:24:16.904Z,86.44
2018-03-08T02:26:46.042Z,86.52
2018-03-08T02:29:14.661Z,86.46
2018-03-08T02:31:43.273Z,86.46
2018-03-08T02:34:11.639Z,86.45
2018-03-08T02:36:40.026Z,86.34
2018-03-08T02:39:08.501Z,86.32
2018-03-08T02:41:36.869Z,86.50
2018-03-08T02:44:05.245Z,86.42
2018-03-08T02:46:33.655Z,85.73
2018-03-08T02:49:03.625Z,85.86
2018-03-08T02:51:32.014Z,85.77
2018-03-08T02:54:00.407Z,85.65
2018-03-08T02:56:28.880Z,85.63
2018-03-08T02:58:57.342Z,85.76
2018-03-08T03:01:26.506Z,86.17
2018-03-08T03:03:55.767Z,86.16
2018-03-08T03:06:24.171Z,86.25
2018-03-08T03:08:52.631Z,85.88
2018-03-08T03:11:21.229Z,85.72
2018-03-08T03:13:49.555Z,86.18
2018-03-08T03:16:19.665Z,86.19
2018-03-08T03:18:48.047Z,85.94
2018-03-08T03:21:16.450Z,86.18
2018-03-08T03:23:47.114Z,86.27
2018-03-08T03:26:16.359Z,86.22
2018-03-08T03:28:44.751Z,86.87
2018-03-08T03:31:13.058Z,86.54
2018-03-08T03:33:42.209Z,86.21
2018-03-08T03:36:11.409Z,86.16
2018-03-08T03:38:39.809Z,86.31
2018-03-08T03:41:08.181Z,85.92
2018-03-08T03:43:36.539Z,86.45
2018-03-08T03:46:04.891Z,86.57
2018-03-08T03:48:34.048Z,86.15
2018-03-08T03:51:02.397Z,86.52
2018-03-08T03:53:31.660Z,86.56
2018-03-08T03:56:00.005Z,86.21
2018-03-08T03:58:28.328Z,85.50
2018-03-08T04:00:57.421Z,85.26
2018-03-08T04:03:25.746Z,84.82
2018-03-08T04:05:54.169Z,85.01
2018-03-08T04:08:22.489Z,84.93
2018-03-08T04:10:50.847Z,84.86
2018-03-08T04:13:19.229Z,85.92
2018-03-08T04:15:47.720Z,86.57
2018-03-08T04:18:16.060Z,86.53
2018-03-08T04:20:44.385Z,86.66
2018-03-08T04:23:13.556Z,86.28
2018-03-08T04:25:41.885Z,86.64
2018-03-08T04:28:10.305Z,87.08
2018-03-08T04:30:38.834Z,87.39
2018-03-08T04:33:07.997Z,87.56
2018-03-08T04:35:36.352Z,87.80
2018-03-08T04:38:04.733Z,87.79
2018-03-08T04:40:33.079Z,87.58
2018-03-08T04:43:02.238Z,87.49
2018-03-08T04:45:30.631Z,87.52
2018-03-08T04:48:00.363Z,86.71
2018-03-08T04:50:29.533Z,86.13
2018-03-08T04:52:58.019Z,85.62
2018-03-08T04:55:26.356Z,85.50
2018-03-08T04:57:55.517Z,85.77
2018-03-08T05:00:24.665Z,85.57
2018-03-08T05:02:53.046Z,85.30
2018-03-08T05:05:21.407Z,85.30
2018-03-08T05:07:50.528Z,85.38
2018-03-08T05:10:18.851Z,85.45
2018-03-08T05:12:47.157Z,85.15
2018-03-08T05:15:15.585Z,85.36
2018-03-08T05:17:43.980Z,85.36
2018-03-08T05:20:12.493Z,85.23
2018-03-08T05:22:40.814Z,85.50
2018-03-08T05:25:09.916Z,85.40
2018-03-08T05:27:39.067Z,85.74
2018-03-08T05:30:07.568Z,85.52
2018-03-08T05:32:37.437Z,85.63
2018-03-08T05:35:07.141Z,85.81
2018-03-08T05:37:36.340Z,85.98
2018-03-08T05:40:04.746Z,86.06
2018-03-08T05:42:33.145Z,85.99
2018-03-08T05:45:01.521Z,86.32
2018-03-08T05:47:29.882Z,86.32
2018-03-08T05:49:59.052Z,86.16
2018-03-08T05:52:27.490Z,85.90
2018-03-08T05:54:55.847Z,86.00
2018-03-08T05:57:24.187Z,85.47
2018-03-08T05:59:53.282Z,85.68
2018-03-08T06:02:23.181Z,86.09
2018-03-08T06:04:51.570Z,86.16
2018-03-08T06:07:19.973Z,86.78
2018-03-08T06:09:48.360Z,87.04
2018-03-08T06:12:18.032Z,87.22
2018-03-08T06:14:46.365Z,87.75
2018-03-08T06:17:14.724Z,87.90
2018-03-08T06:19:43.830Z,87.98
2018-03-08T06:22:12.923Z,87.91
2018-03-08T06:24:42.039Z,87.63
2018-03-08T06:27:12.034Z,87.60
2018-03-08T06:29:40.410Z,87.50
2018-03-08T06:32:08.794Z,87.52
2018-03-08T06:34:37.120Z,87.49
2018-03-08T06:37:05.452Z,87.50
2018-03-08T06:39:33.831Z,87.38
2018-03-08T06:42:02.173Z,87.31
2018-03-08T06:44:30.508Z,86.94
2018-03-08T06:46:59.648Z,86.02
2018-03-08T06:49:27.989Z,84.81
2018-03-08T06:51:56.834Z,84.37
2018-03-08T06:54:25.599Z,84.48
2018-03-08T06:56:53.988Z,84.78
2018-03-08T06:59:22.309Z,85.07
2018-03-08T07:01:50.659Z,84.84
2018-03-08T07:04:19.029Z,84.85
2018-03-08T07:06:47.356Z,84.84
2018-03-08T07:09:15.703Z,84.34
2018-03-08T07:11:44.034Z,83.81
2018-03-08T07:14:12.354Z,83.03
2018-03-08T07:16:40.685Z,82.19
2018-03-08T07:19:09.052Z,81.65
2018-03-08T07:21:37.365Z,81.34
2018-03-08T07:24:06.499Z,81.12
2018-03-08T07:26:34.813Z,80.87
2018-03-08T07:29:03.158Z,80.18
2018-03-08T07:31:31.499Z,79.62
2018-03-08T07:33:59.825Z,79.28
2018-03-08T07:36:28.935Z,78.86
2018-03-08T07:38:57.313Z,78.72
2018-03-08T07:41:25.696Z,78.66
2018-03-08T07:43:54.009Z,78.21
2018-03-08T07:46:22.481Z,78.26
2018-03-08T07:48:52.351Z,77.95
2018-03-08T07:51:21.424Z,77.68
2018-03-08T07:53:51.088Z,77.68
2018-03-08T07:56:19.412Z,77.63
2018-03-08T07:58:47.713Z,77.55
2018-03-08T08:01:17.590Z,77.32
2018-03-08T08:03:45.914Z,76.57
2018-03-08T08:09:27.657Z,76.31
2018-03-08T08:11:55.976Z,75.81
2018-03-08T08:14:24.322Z,76.06
2018-03-08T08:16:52.652Z,75.63
2018-03-08T08:19:21.738Z,75.83
2018-03-08T08:21:50.044Z,75.75
2018-03-08T08:24:18.395Z,75.81
2018-03-08T08:26:46.742Z,75.48
2018-03-08T08:29:15.051Z,75.89
2018-03-08T08:31:43.367Z,76.26
2018-03-08T08:34:11.738Z,76.27
2018-03-08T08:36:40.125Z,76.27
2018-03-08T08:39:08.454Z,76.39
2018-03-08T08:41:36.811Z,76.30
2018-03-08T08:44:05.132Z,76.80
2018-03-08T08:49:09.509Z,76.49
2018-03-08T08:51:37.860Z,76.74
2018-03-08T08:54:06.955Z,76.80
2018-03-08T08:56:35.326Z,77.06
2018-03-08T08:59:04.226Z,77.23
2018-03-08T09:01:34.039Z,77.14
2018-03-08T09:04:02.364Z,77.82
2018-03-08T09:06:30.746Z,77.99
2018-03-08T09:08:59.074Z,78.14
2018-03-08T09:11:27.390Z,78.85
2018-03-08T09:13:56.475Z,79.30
2018-03-08T09:16:25.518Z,80.28
2018-03-08T09:18:53.912Z,81.08
2018-03-08T09:21:22.252Z,81.41
2018-03-08T09:23:51.418Z,81.63
2018-03-08T09:26:19.726Z,81.92
2018-03-08T09:28:48.854Z,81.55
2018-03-08T09:31:17.524Z,81.66
2018-03-08T09:33:46.705Z,81.69
2018-03-08T09:36:15.783Z,81.36
2018-03-08T09:38:44.117Z,81.55
2018-03-08T09:41:12.452Z,81.67
2018-03-08T09:43:40.801Z,81.97
2018-03-08T09:46:09.201Z,82.02
2018-03-08T09:48:37.522Z,81.95
2018-03-08T09:51:05.881Z,82.01
2018-03-08T09:53:34.378Z,82.05
2018-03-08T09:56:02.694Z,82.53
2018-03-08T09:58:30.999Z,82.63
2018-03-08T10:00:59.613Z,82.42
2018-03-08T10:03:27.908Z,82.33
2018-03-08T10:05:57.001Z,82.63
2018-03-08T10:08:25.407Z,83.15
2018-03-08T10:10:54.531Z,83.40
2018-03-08T10:13:22.827Z,83.50
2018-03-08T10:15:51.212Z,83.59
2018-03-08T10:18:19.925Z,84.08
2018-03-08T10:20:48.239Z,84.22
2018-03-08T10:23:17.320Z,84.02
2018-03-08T10:25:46.418Z,83.68
2018-03-08T10:28:15.498Z,83.82
2018-03-08T10:30:43.844Z,83.90
2018-03-08T10:33:12.222Z,82.49
2018-03-08T10:35:40.584Z,81.50
2018-03-08T10:38:08.908Z,81.59
2018-03-08T10:40:44.255Z,81.83
2018-03-08T10:43:05.608Z,82.13
2018-03-08T10:45:33.966Z,82.36
2018-03-08T10:48:02.342Z,82.96
2018-03-08T10:50:30.676Z,83.18
2018-03-08T10:52:59.053Z,83.32
2018-03-08T10:55:27.403Z,83.59
2018-03-08T10:57:55.720Z,83.90
2018-03-08T11:00:29.682Z,84.30
2018-03-08T11:02:58.000Z,84.27
2018-03-08T11:05:27.104Z,84.40
2018-03-08T11:07:56.224Z,84.43
2018-03-08T11:10:24.556Z,84.59
2018-03-08T11:12:52.889Z,84.58
2018-03-08T11:15:21.212Z,84.82
2018-03-08T11:17:50.348Z,84.64
2018-03-08T11:20:18.672Z,84.69
2018-03-08T11:22:47.012Z,84.78
2018-03-08T11:25:15.332Z,84.79
2018-03-08T11:27:43.648Z,84.96
2018-03-08T11:30:12.767Z,84.65
2018-03-08T11:32:41.092Z,84.63
2018-03-08T11:35:09.448Z,84.50
2018-03-08T11:37:37.754Z,84.16
2018-03-08T11:40:06.077Z,84.31
2018-03-08T11:42:35.223Z,84.23
2018-03-08T11:45:04.293Z,84.33
2018-03-08T11:47:32.619Z,84.24
2018-03-08T11:50:00.953Z,84.26
2018-03-08T11:52:29.290Z,84.05
2018-03-08T11:54:57.620Z,83.37
2018-03-08T11:57:26.012Z,82.27
2018-03-08T11:59:54.370Z,81.89
2018-03-08T12:02:23.458Z,80.49
2018-03-08T12:04:52.538Z,80.90
2018-03-08T12:07:20.870Z,80.98
2018-03-08T12:09:49.194Z,81.07
2018-03-08T12:12:17.552Z,79.94
2018-03-08T12:14:45.850Z,78.93
2018-03-08T12:17:14.203Z,78.11
2018-03-08T12:19:42.515Z,77.46
2018-03-08T12:22:10.811Z,75.57
2018-03-08T12:24:39.179Z,72.69
2018-03-08T12:27:07.525Z,71.98
2018-03-08T12:29:35.856Z,70.68
2018-03-08T12:32:04.264Z,70.32
2018-03-08T12:34:32.938Z,67.24
2018-03-08T12:37:01.285Z,68.40
2018-03-08T12:39:29.607Z,66.54
2018-03-08T12:41:58.703Z,66.84
2018-03-08T12:44:27.193Z,66.42
2018-03-08T12:46:56.271Z,66.91
2018-03-08T12:49:24.629Z,68.00
2018-03-08T12:51:53.113Z,67.47
2018-03-08T12:54:21.567Z,65.64
2018-03-08T12:56:49.909Z,65.64
2018-03-08T12:59:18.249Z,66.29
2018-03-08T13:01:46.589Z,65.40
2018-03-08T13:04:14.885Z,65.01
2018-03-08T13:06:43.205Z,63.47
2018-03-08T13:09:11.548Z,60.89
2018-03-08T13:11:39.967Z,60.91
2018-03-08T13:14:08.232Z,61.30
2018-03-08T13:16:36.582Z,58.38
2018-03-08T13:19:04.948Z,58.10
2018-03-08T13:21:33.307Z,56.96
2018-03-08T13:24:01.746Z,57.11
2018-03-08T13:26:30.040Z,56.96
2018-03-08T13:28:58.380Z,57.11
2018-03-08T13:31:26.857Z,57.81
2018-03-08T13:33:56.003Z,58.88
2018-03-08T13:36:24.463Z,56.92
2018-03-08T13:38:52.837Z,55.01
2018-03-08T13:41:22.121Z,53.74
2018-03-08T13:43:50.489Z,49.37
2018-03-08T13:46:20.363Z,47.58
2018-03-08T13:48:48.723Z,46.56
2018-03-08T13:51:17.886Z,45.63
2018-03-08T13:53:46.204Z,45.27
2018-03-08T13:56:15.301Z,46.25
2018-03-08T13:58:44.389Z,45.08
2018-03-08T14:01:14.139Z,45.29
2018-03-08T14:03:42.462Z,44.44
2018-03-08T14:06:10.789Z,45.41
2018-03-08T14:08:39.134Z,45.83
2018-03-08T14:11:07.479Z,47.10
2018-03-08T14:13:35.832Z,47.77
2018-03-08T14:16:04.145Z,47.50
2018-03-08T14:18:32.454Z,43.95
2018-03-08T14:21:00.765Z,44.87
2018-03-08T14:23:29.967Z,43.17
2018-03-08T14:25:58.495Z,42.01
2018-03-08T14:28:26.799Z,43.26
2018-03-08T14:30:55.144Z,44.17
2018-03-08T14:33:23.451Z,45.04
2018-03-08T14:35:51.762Z,44.09
2018-03-08T14:38:20.874Z,42.03
2018-03-08T14:40:49.275Z,40.82
2018-03-08T14:43:17.585Z,39.81
2018-03-08T14:45:45.945Z,40.00
2018-03-08T14:48:14.239Z,40.49
2018-03-08T14:50:42.574Z,40.64
2018-03-08T14:53:11.655Z,40.28
2018-03-08T14:55:40.071Z,38.62
2018-03-08T14:58:08.385Z,37.04
2018-03-08T15:00:36.724Z,37.50
2018-03-08T15:03:05.055Z,38.87
2018-03-08T15:05:33.401Z,40.03
2018-03-08T15:08:01.738Z,40.98
2018-03-08T15:10:30.067Z,42.48
2018-03-08T15:12:58.381Z,44.23
2018-03-08T15:15:26.707Z,46.25
2018-03-08T15:17:55.049Z,47.92
2018-03-08T15:20:23.377Z,48.88
2018-03-08T15:22:53.531Z,50.21
2018-03-08T15:25:23.399Z,51.53
2018-03-08T15:27:52.479Z,51.95
2018-03-08T15:30:20.810Z,52.71
2018-03-08T15:32:49.173Z,53.22
2018-03-08T15:35:17.485Z,53.98
2018-03-08T15:37:45.789Z,54.70
2018-03-08T15:40:14.144Z,56.86
2018-03-08T15:42:42.490Z,58.69
2018-03-08T15:45:11.626Z,60.23
2018-03-08T15:47:40.772Z,61.69
2018-03-08T15:50:09.079Z,62.07
2018-03-08T15:52:38.167Z,62.00
2018-03-08T15:55:07.294Z,61.66
2018-03-08T15:57:35.659Z,61.35
2018-03-08T16:00:04.056Z,61.52
2018-03-08T16:02:32.355Z,61.12
2018-03-08T16:05:00.656Z,62.80
2018-03-08T16:10:43.076Z,67.74
2018-03-08T16:13:11.445Z,68.98
2018-03-08T16:15:40.527Z,69.94
2018-03-08T16:18:08.884Z,70.50
2018-03-08T16:20:37.201Z,71.82
2018-03-08T16:23:05.528Z,72.82
2018-03-08T16:39:51.532Z,79.42
2018-03-08T16:42:19.908Z,78.82
2018-03-08T16:44:48.273Z,78.99
2018-03-08T16:47:16.602Z,79.31
2018-03-08T16:49:45.692Z,79.64
2018-03-08T16:52:14.263Z,79.78
2018-03-08T16:54:43.151Z,79.85
2018-03-08T16:57:11.588Z,79.80
2018-03-08T16:59:39.934Z,80.30
2018-03-08T17:02:09.206Z,80.76
2018-03-08T17:04:37.577Z,80.83
2018-03-08T17:07:05.867Z,81.37
2018-03-08T17:09:35.059Z,81.70
2018-03-08T17:12:03.503Z,81.96
2018-03-08T17:14:31.761Z,82.04
2018-03-08T17:17:00.075Z,82.39
2018-03-08T17:19:29.261Z,82.63
2018-03-08T17:21:58.388Z,82.78
2018-03-08T17:24:27.467Z,82.97
2018-03-08T17:26:55.779Z,83.10
2018-03-08T17:29:24.198Z,83.15
2018-03-08T17:31:52.662Z,83.23
2018-03-08T17:34:20.956Z,83.38
2018-03-08T17:36:49.838Z,83.59
2018-03-08T17:39:18.143Z,83.50
2018-03-08T17:41:47.244Z,83.73
2018-03-08T17:44:15.589Z,83.84
2018-03-08T17:46:44.637Z,83.99
2018-03-08T17:49:13.702Z,84.06
2018-03-08T17:51:42.033Z,83.99
2018-03-08T17:54:10.372Z,84.11
2018-03-08T17:56:39.031Z,84.18
2018-03-08T17:59:08.142Z,84.20
2018-03-08T18:01:36.495Z,84.11
2018-03-08T18:04:04.954Z,84.16
2018-03-08T18:06:33.304Z,84.05
2018-03-08T18:09:02.401Z,83.99
2018-03-08T18:11:30.709Z,84.09
2018-03-08T18:13:59.030Z,83.90
2018-03-08T18:16:28.096Z,83.92
2018-03-08T18:18:56.407Z,83.93
2018-03-08T18:21:24.773Z,84.04
2018-03-08T18:23:53.101Z,83.75
2018-03-08T18:26:21.476Z,83.55
2018-03-08T18:28:50.646Z,83.09
2018-03-08T18:31:18.956Z,82.89
2018-03-08T18:33:48.931Z,82.76
2018-03-08T18:36:17.219Z,82.37
2018-03-08T18:38:46.072Z,82.21
2018-03-08T18:41:14.510Z,82.17
2018-03-08T18:43:42.836Z,81.87
2018-03-08T18:46:11.984Z,80.99
2018-03-08T18:48:40.323Z,80.41
2018-03-08T18:51:08.631Z,80.17
2018-03-08T18:53:37.110Z,79.27
2018-03-08T18:56:05.421Z,78.96
2018-03-08T18:58:33.772Z,78.79
2018-03-08T19:01:02.082Z,78.78
2018-03-08T19:03:30.529Z,78.40
2018-03-08T19:05:58.848Z,78.18
2018-03-08T19:08:27.916Z,78.07
2018-03-08T19:10:56.831Z,78.09
2018-03-08T19:13:25.142Z,78.20
2018-03-08T19:15:54.435Z,78.17
2018-03-08T19:18:22.748Z,78.27
2018-03-08T19:20:51.808Z,78.22
2018-03-08T19:23:20.107Z,78.25
2018-03-08T19:25:48.412Z,78.30
2018-03-08T19:28:17.666Z,78.32
2018-03-08T19:30:45.976Z,77.95
2018-03-08T19:33:14.342Z,77.56
2018-03-08T19:35:42.631Z,77.12
2018-03-08T19:38:10.926Z,76.54
2018-03-08T19:40:39.988Z,76.27
2018-03-08T19:43:08.289Z,76.06
2018-03-08T19:45:36.634Z,75.98
2018-03-08T19:48:05.012Z,75.99
2018-03-08T19:50:33.329Z,75.51
2018-03-08T19:53:01.640Z,75.60
2018-03-08T19:55:30.737Z,75.58
2018-03-08T19:57:59.062Z,75.09
2018-03-08T20:00:27.418Z,75.08
2018-03-08T20:02:55.936Z,74.89
2018-03-08T20:05:24.268Z,75.16
2018-03-08T20:07:53.359Z,75.29
2018-03-08T20:10:21.670Z,75.34
2018-03-08T20:12:50.816Z,75.28
2018-03-08T20:15:19.154Z,75.70
2018-03-08T20:17:48.210Z,75.35
2018-03-08T20:20:16.518Z,74.85
2018-03-08T20:22:44.840Z,74.53
2018-03-08T20:25:13.170Z,73.88
2018-03-08T20:27:41.511Z,73.42
2018-03-08T20:30:09.839Z,73.58
2018-03-08T20:32:38.168Z,73.72
2018-03-08T20:35:06.797Z,73.85
2018-03-08T20:37:35.112Z,73.75
2018-03-08T20:40:04.172Z,73.66
2018-03-08T20:42:32.540Z,73.61
2018-03-08T20:45:00.835Z,73.38
2018-03-08T20:47:29.126Z,72.99
2018-03-08T20:49:58.218Z,72.94
2018-03-08T20:52:26.552Z,73.06
2018-03-08T20:54:54.938Z,73.04
2018-03-08T20:57:23.252Z,73.42
2018-03-08T20:59:51.536Z,73.70
2018-03-08T21:02:20.586Z,73.57
2018-03-08T21:04:49.660Z,73.70
2018-03-08T21:07:17.951Z,73.61
2018-03-08T21:09:46.267Z,73.93
2018-03-08T21:12:14.595Z,73.88
2018-03-08T21:14:42.911Z,73.91
2018-03-08T21:17:12.032Z,73.83
2018-03-08T21:19:40.345Z,74.06
2018-03-08T21:22:08.691Z,73.74
2018-03-08T21:24:36.982Z,73.76
2018-03-08T21:27:05.380Z,74.07
2018-03-08T21:29:34.169Z,74.12
2018-03-08T21:32:02.462Z,74.08
2018-03-08T21:34:30.778Z,74.06
2018-03-08T21:36:59.086Z,74.41
2018-03-08T21:39:27.492Z,74.60
2018-03-08T21:41:55.783Z,74.69
2018-03-08T21:44:24.076Z,74.51
2018-03-08T21:46:52.385Z,74.53
2018-03-08T21:49:20.672Z,74.27
2018-03-08T21:51:48.976Z,74.23
2018-03-08T21:54:18.038Z,74.19
2018-03-08T21:56:46.354Z,74.27
2018-03-08T21:59:15.405Z,73.83
2018-03-08T22:01:43.696Z,73.70
2018-03-08T22:04:12.020Z,73.72
2018-03-08T22:06:40.326Z,73.73
2018-03-08T22:09:08.633Z,73.73
2018-03-08T22:11:36.936Z,73.62
2018-03-08T22:14:06.000Z,73.53
2018-03-08T22:16:34.281Z,73.25
2018-03-08T22:19:02.575Z,73.52
2018-03-08T22:21:30.900Z,73.78
2018-03-08T22:24:00.107Z,73.77
2018-03-08T22:26:29.200Z,73.88
2018-03-08T22:28:58.260Z,73.92
2018-03-08T22:31:26.548Z,73.83
2018-03-08T22:33:54.844Z,73.52
2018-03-08T22:36:23.531Z,73.57
2018-03-08T22:38:51.900Z,73.49
2018-03-08T22:41:20.467Z,73.49
2018-03-08T22:43:48.759Z,73.45
2018-03-08T22:46:17.039Z,73.34
2018-03-08T22:48:45.339Z,73.37
2018-03-08T22:51:13.654Z,73.15
2018-03-08T22:53:42.766Z,73.12
2018-03-08T22:56:11.047Z,73.16
2018-03-08T22:58:40.118Z,73.11
2018-03-08T23:01:08.415Z,73.40
2018-03-08T23:03:37.470Z,73.34
2018-03-08T23:06:05.770Z,73.36
2018-03-08T23:08:34.085Z,73.47
2018-03-08T23:11:03.207Z,73.62
2018-03-08T23:13:31.502Z,73.72
2018-03-08T23:15:59.779Z,73.91
2018-03-08T23:18:28.074Z,73.96
2018-03-08T23:20:56.371Z,74.15
2018-03-08T23:23:24.675Z,74.47
2018-03-08T23:25:53.740Z,74.16
2018-03-08T23:28:22.796Z,74.12
2018-03-08T23:30:51.176Z,74.00
2018-03-08T23:33:20.256Z,73.84
2018-03-08T23:35:49.362Z,73.69
2018-03-08T23:38:18.424Z,73.86
2018-03-08T23:40:46.743Z,73.77
2018-03-08T23:43:15.791Z,73.58
2018-03-08T23:45:44.114Z,73.55
2018-03-08T23:48:13.207Z,73.62
2018-03-08T23:50:41.519Z,73.52
2018-03-08T23:53:09.822Z,73.29
2018-03-08T23:55:38.260Z,73.46
2018-03-08T23:58:06.560Z,73.67
